Time;durP1;ratioP1;P1;durP2;ratioP2;P2;SDS_P1;SDS_P2;PMS_P1;PMS_P2;Temp;Humidity;BMP_temperature;BMP_pressure;BME280_temperature;BME280_humidity;BME280_pressure;Samples;Min_cycle;Max_cycle;Signal;HPM_P1;HPM_P2
2022/10/29 00:00:25;;;;;;;62.83;15.52;;;12.50;99.90;;;;;;5069291;28;20049;-71
2022/10/29 00:02:51;;;;;;;63.50;15.88;;;12.50;99.90;;;;;;5068337;28;20098;-71
2022/10/29 00:05:16;;;;;;;48.78;14.40;;;12.50;99.90;;;;;;5054405;28;20088;-71
2022/10/29 00:07:42;;;;;;;53.50;15.23;;;12.40;99.90;;;;;;5033117;28;20076;-71
2022/10/29 00:10:08;;;;;;;57.78;16.80;;;12.50;99.90;;;;;;5038301;28;20499;-71
2022/10/29 00:12:35;;;;;;;61.08;16.10;;;12.50;99.90;;;;;;5056382;28;20521;-71
2022/10/29 00:15:01;;;;;;;50.55;14.18;;;12.50;99.90;;;;;;5041018;28;20543;-71
2022/10/29 00:17:26;;;;;;;58.50;17.25;;;12.50;99.90;;;;;;5031214;28;20052;-71
2022/10/29 00:19:52;;;;;;;58.15;16.48;;;12.50;99.90;;;;;;5048417;28;20053;-71
2022/10/29 00:22:18;;;;;;;55.67;16.55;;;12.50;99.90;;;;;;5048176;28;20037;-71
2022/10/29 00:24:43;;;;;;;57.92;16.23;;;12.50;99.90;;;;;;5047043;28;20527;-71
2022/10/29 00:27:09;;;;;;;66.80;16.95;;;12.50;99.90;;;;;;5031589;28;20052;-72
2022/10/29 00:29:35;;;;;;;60.08;16.45;;;12.50;99.90;;;;;;5048332;28;20106;-71
2022/10/29 00:32:00;;;;;;;50.45;15.52;;;12.40;99.90;;;;;;5046838;28;20057;-72
2022/10/29 00:34:26;;;;;;;52.15;14.23;;;12.40;99.90;;;;;;5046338;28;20056;-71
2022/10/29 00:36:51;;;;;;;58.10;15.18;;;12.40;99.90;;;;;;5031913;28;20067;-71
2022/10/29 00:39:18;;;;;;;286.15;29.88;;;12.30;99.90;;;;;;5046882;28;20041;-71
2022/10/29 00:41:44;;;;;;;69.72;13.52;;;12.20;99.90;;;;;;5043624;28;20044;-72
2022/10/29 00:44:21;;;;;;;139.27;17.67;;;12.20;99.90;;;;;;5034533;28;20045;-71
2022/10/29 00:47:01;;;;;;;277.27;19.35;;;12.10;99.90;;;;;;5034364;28;20088;-71
2022/10/29 00:49:27;;;;;;;189.98;17.63;;;12.10;99.90;;;;;;5047094;28;20052;-71
2022/10/29 00:51:54;;;;;;;144.80;17.85;;;12.10;99.90;;;;;;5027071;28;20190;-71
2022/10/29 00:54:19;;;;;;;513.50;38.38;;;12.10;99.90;;;;;;5023358;28;20086;-72
2022/10/29 00:56:54;;;;;;;247.88;19.63;;;12.00;99.90;;;;;;5032365;28;20464;-72
2022/10/29 00:59:20;;;;;;;347.40;31.10;;;12.00;99.90;;;;;;5045087;28;20071;-71
2022/10/29 01:01:47;;;;;;;178.13;16.77;;;12.00;99.90;;;;;;5043730;28;20304;-71
2022/10/29 01:04:13;;;;;;;193.43;17.08;;;12.00;99.90;;;;;;5017408;28;20040;-71
2022/10/29 01:06:42;;;;;;;153.85;18.85;;;12.00;99.90;;;;;;5039216;28;20053;-71
2022/10/29 01:09:08;;;;;;;129.55;18.65;;;12.10;99.90;;;;;;5041224;28;20049;-71
2022/10/29 01:11:45;;;;;;;80.65;16.73;;;11.90;99.90;;;;;;5049805;28;20048;-71
2022/10/29 01:14:26;;;;;;;167.60;21.70;;;12.00;99.90;;;;;;5065716;28;20049;-71
2022/10/29 01:17:27;;;;;;;429.33;31.70;;;12.00;99.90;;;;;;5051142;28;20082;-71
2022/10/29 01:20:26;;;;;;;462.53;39.80;;;12.00;99.90;;;;;;5059957;28;20048;-71
2022/10/29 01:23:27;;;;;;;235.75;22.05;;;12.00;99.90;;;;;;5046009;28;20116;-71
2022/10/29 01:26:25;;;;;;;580.75;44.13;;;12.10;99.90;;;;;;5048047;28;20051;-71
2022/10/29 01:29:21;;;;;;;440.42;33.28;;;12.10;99.90;;;;;;5042364;28;20510;-70
2022/10/29 01:32:04;;;;;;;337.23;27.42;;;12.10;99.90;;;;;;5026556;28;20046;-70
2022/10/29 01:34:45;;;;;;;553.72;42.63;;;12.10;99.90;;;;;;5057114;28;20053;-71
2022/10/29 01:37:44;;;;;;;445.13;31.98;;;12.00;99.90;;;;;;5032663;28;20537;-71
2022/10/29 01:40:29;;;;;;;464.85;34.60;;;12.00;99.90;;;;;;5034564;28;20061;-71
2022/10/29 01:43:09;;;;;;;366.98;28.55;;;12.00;99.90;;;;;;5042058;28;20049;-71
2022/10/29 01:45:58;;;;;;;351.13;30.02;;;12.00;99.90;;;;;;5045424;28;20049;-71
2022/10/29 01:48:32;;;;;;;443.00;27.38;;;11.90;99.90;;;;;;5019025;28;20525;-70
2022/10/29 01:51:03;;;;;;;577.08;38.05;;;12.00;99.90;;;;;;5045995;28;20045;-72
2022/10/29 01:53:30;;;;;;;178.32;17.95;;;12.00;99.90;;;;;;5054508;28;20051;-70
2022/10/29 01:55:55;;;;;;;44.10;13.60;;;12.00;99.90;;;;;;5064907;28;20094;-71
2022/10/29 01:58:23;;;;;;;387.08;25.73;;;12.00;99.90;;;;;;5031614;28;20061;-71
2022/10/29 02:01:17;;;;;;;439.20;32.20;;;12.00;99.90;;;;;;5032868;28;20052;-71
2022/10/29 02:03:51;;;;;;;276.15;24.13;;;12.00;99.90;;;;;;5050639;28;20052;-71
2022/10/29 02:06:38;;;;;;;434.35;35.30;;;12.00;99.90;;;;;;5041078;28;20041;-71
2022/10/29 02:09:15;;;;;;;512.95;38.15;;;12.00;99.90;;;;;;5045141;28;20075;-71
2022/10/29 02:12:05;;;;;;;560.78;43.75;;;11.90;99.90;;;;;;5044260;28;20136;-71
2022/10/29 02:14:44;;;;;;;367.85;28.40;;;11.90;99.90;;;;;;5048837;28;20412;-71
2022/10/29 02:17:10;;;;;;;308.75;23.73;;;11.90;99.90;;;;;;5040218;28;20056;-71
2022/10/29 02:19:36;;;;;;;259.52;22.17;;;11.90;99.90;;;;;;5057428;28;20040;-71
2022/10/29 02:22:02;;;;;;;298.85;19.75;;;11.90;99.90;;;;;;5068101;28;20037;-71
2022/10/29 02:24:27;;;;;;;173.23;15.48;;;11.90;99.90;;;;;;5052190;28;20105;-71
2022/10/29 02:26:53;;;;;;;330.48;22.25;;;11.80;99.90;;;;;;5037554;28;20621;-71
2022/10/29 02:29:19;;;;;;;327.73;25.95;;;11.70;99.90;;;;;;5052119;28;20045;-71
2022/10/29 02:31:45;;;;;;;392.83;28.75;;;11.60;99.90;;;;;;5043919;28;20045;-70
2022/10/29 02:34:10;;;;;;;453.42;33.55;;;11.60;99.90;;;;;;5040551;28;20049;-71
2022/10/29 02:36:36;;;;;;;457.50;32.25;;;11.50;99.90;;;;;;5035877;28;20400;-71
2022/10/29 02:39:02;;;;;;;295.38;27.27;;;11.70;99.90;;;;;;5047314;28;20056;-71
2022/10/29 02:41:27;;;;;;;449.55;35.28;;;11.60;99.90;;;;;;5048943;28;20134;-71
2022/10/29 02:43:53;;;;;;;392.67;25.25;;;11.60;99.90;;;;;;5040979;28;20045;-71
2022/10/29 02:46:21;;;;;;;436.88;33.65;;;11.60;99.90;;;;;;5037996;28;20060;-71
2022/10/29 02:48:48;;;;;;;499.00;38.47;;;11.70;99.90;;;;;;5066477;28;20123;-71
2022/10/29 02:51:14;;;;;;;415.52;35.35;;;11.60;99.90;;;;;;5068621;28;20048;-71
2022/10/29 02:53:40;;;;;;;455.08;37.67;;;11.60;99.90;;;;;;5051706;28;20087;-71
2022/10/29 02:56:06;;;;;;;460.17;28.35;;;11.60;99.90;;;;;;5029606;28;20053;-72
2022/10/29 02:58:32;;;;;;;511.02;35.95;;;11.70;99.90;;;;;;5028419;28;20045;-71
2022/10/29 03:00:58;;;;;;;459.63;36.15;;;11.60;99.90;;;;;;5048849;28;20489;-70
2022/10/29 03:03:24;;;;;;;361.67;31.30;;;11.60;99.90;;;;;;5048044;28;20789;-71
2022/10/29 03:05:50;;;;;;;295.80;24.45;;;11.70;99.90;;;;;;5050166;28;20057;-71
2022/10/29 03:08:16;;;;;;;398.95;29.00;;;11.70;99.90;;;;;;5032628;28;20044;-71
2022/10/29 03:10:42;;;;;;;336.10;26.38;;;11.70;99.90;;;;;;5036199;28;20136;-71
2022/10/29 03:13:08;;;;;;;534.85;43.00;;;11.70;99.90;;;;;;5028021;28;20132;-71
2022/10/29 03:15:34;;;;;;;420.90;32.05;;;11.60;99.90;;;;;;5029995;28;20052;-71
2022/10/29 03:17:59;;;;;;;537.47;46.30;;;11.60;99.90;;;;;;5044442;28;20576;-70
2022/10/29 03:20:25;;;;;;;553.22;47.10;;;11.60;99.90;;;;;;5057813;28;20053;-71
2022/10/29 03:22:51;;;;;;;439.90;34.38;;;11.60;99.90;;;;;;5048015;28;20053;-70
2022/10/29 03:25:16;;;;;;;421.88;31.88;;;11.60;99.90;;;;;;5050094;28;20049;-71
2022/10/29 03:27:43;;;;;;;500.08;45.92;;;11.50;99.90;;;;;;5031966;28;20045;-71
2022/10/29 03:30:14;;;;;;;410.80;38.60;;;11.40;99.90;;;;;;5049738;28;20438;-71
2022/10/29 03:32:43;;;;;;;385.60;32.20;;;11.50;99.90;;;;;;5049163;28;20051;-71
2022/10/29 03:35:11;;;;;;;348.98;25.25;;;11.40;99.90;;;;;;5055588;28;20492;-71
2022/10/29 03:37:37;;;;;;;387.25;28.00;;;11.50;99.90;;;;;;5053061;28;20063;-71
2022/10/29 03:40:03;;;;;;;456.52;37.75;;;11.50;99.90;;;;;;5069208;28;20041;-71
2022/10/29 03:42:32;;;;;;;336.52;24.45;;;11.50;99.90;;;;;;5067164;28;20049;-70
2022/10/29 03:45:01;;;;;;;217.93;21.27;;;11.50;99.90;;;;;;5049377;28;20393;-71
2022/10/29 03:47:28;;;;;;;566.08;45.58;;;11.50;99.90;;;;;;5044316;28;20048;-71
2022/10/29 03:49:54;;;;;;;425.63;30.15;;;11.50;99.90;;;;;;5068018;28;20051;-71
2022/10/29 03:52:20;;;;;;;505.20;35.58;;;11.50;99.90;;;;;;5050311;28;20048;-71
2022/10/29 03:54:46;;;;;;;326.27;25.83;;;11.50;99.90;;;;;;5045240;28;20063;-71
2022/10/29 03:57:12;;;;;;;412.92;32.40;;;11.60;99.90;;;;;;5024363;28;20061;-71
2022/10/29 03:59:38;;;;;;;486.08;36.67;;;11.50;99.90;;;;;;5047422;28;20056;-71
2022/10/29 04:02:03;;;;;;;517.97;43.30;;;11.50;99.90;;;;;;5047030;28;20098;-72
2022/10/29 04:04:29;;;;;;;513.40;34.05;;;11.60;99.90;;;;;;5068766;28;20055;-71
2022/10/29 04:06:55;;;;;;;483.08;33.65;;;11.50;99.90;;;;;;5052603;28;20084;-71
2022/10/29 04:09:20;;;;;;;477.40;37.70;;;11.60;99.90;;;;;;5061632;28;20083;-71
2022/10/29 04:11:46;;;;;;;486.05;34.72;;;11.50;99.90;;;;;;5048801;28;20148;-71
2022/10/29 04:14:11;;;;;;;465.33;33.17;;;11.70;99.90;;;;;;5039467;28;20522;-70
2022/10/29 04:16:37;;;;;;;343.90;25.92;;;11.50;99.90;;;;;;5020048;28;20064;-71
2022/10/29 04:19:03;;;;;;;465.50;38.67;;;11.60;99.90;;;;;;5046168;28;20049;-71
2022/10/29 04:21:29;;;;;;;315.27;26.88;;;11.70;99.90;;;;;;5060207;28;20143;-71
2022/10/29 04:23:54;;;;;;;404.23;30.17;;;11.70;99.90;;;;;;5066394;28;20048;-70
2022/10/29 04:26:20;;;;;;;612.92;41.53;;;11.70;99.90;;;;;;5056918;28;20044;-72
2022/10/29 04:28:50;;;;;;;443.83;30.88;;;11.60;99.90;;;;;;5061160;28;20044;-70
2022/10/29 04:31:16;;;;;;;391.33;27.95;;;11.70;99.90;;;;;;5067502;28;20098;-70
2022/10/29 04:33:42;;;;;;;386.67;27.85;;;11.70;99.90;;;;;;5057553;28;20791;-70
2022/10/29 04:36:10;;;;;;;353.15;25.52;;;11.70;99.90;;;;;;5028367;28;20555;-72
2022/10/29 04:38:36;;;;;;;473.45;37.47;;;11.70;99.90;;;;;;5034977;28;20037;-71
2022/10/29 04:41:02;;;;;;;459.00;41.28;;;11.80;99.90;;;;;;5041753;28;20055;-70
2022/10/29 04:43:31;;;;;;;421.42;39.03;;;11.80;99.90;;;;;;5032378;28;20049;-71
2022/10/29 04:45:58;;;;;;;386.65;34.92;;;11.80;99.90;;;;;;5037125;28;20646;-71
2022/10/29 04:48:25;;;;;;;328.70;33.00;;;11.80;99.90;;;;;;5015151;28;20099;-71
2022/10/29 04:50:51;;;;;;;390.63;33.38;;;11.80;99.90;;;;;;5037581;28;20060;-70
2022/10/29 04:53:18;;;;;;;444.20;36.88;;;11.90;99.90;;;;;;5039193;28;20049;-70
2022/10/29 04:55:44;;;;;;;429.38;35.95;;;12.00;99.90;;;;;;5047902;28;20045;-70
2022/10/29 04:58:17;;;;;;;404.58;37.75;;;12.00;99.90;;;;;;5029978;28;20041;-70
2022/10/29 05:00:43;;;;;;;504.15;44.30;;;12.00;99.90;;;;;;5048507;28;20044;-71
2022/10/29 05:03:09;;;;;;;446.60;37.70;;;12.00;99.90;;;;;;5045923;28;20140;-71
2022/10/29 05:05:37;;;;;;;450.92;40.42;;;12.10;99.90;;;;;;5046757;28;20052;-70
2022/10/29 05:08:04;;;;;;;442.58;31.17;;;12.10;99.90;;;;;;5030919;28;20495;-71
2022/10/29 05:10:34;;;;;;;440.73;36.47;;;12.10;99.90;;;;;;5009351;28;20974;-71
2022/10/29 05:13:09;;;;;;;430.83;32.50;;;12.10;99.90;;;;;;5032751;28;20103;-71
2022/10/29 05:15:36;;;;;;;531.53;37.30;;;12.10;99.90;;;;;;5022346;28;20049;-71
2022/10/29 05:18:02;;;;;;;369.45;29.48;;;12.20;99.90;;;;;;5017456;28;20083;-71
2022/10/29 05:20:28;;;;;;;577.67;37.65;;;12.10;99.90;;;;;;5049932;28;20057;-71
2022/10/29 05:23:06;;;;;;;560.85;37.13;;;12.20;99.90;;;;;;5065790;28;20049;-71
2022/10/29 05:25:34;;;;;;;529.22;33.03;;;12.20;99.90;;;;;;5066227;28;20083;-71
2022/10/29 05:28:13;;;;;;;479.55;30.25;;;12.20;99.90;;;;;;5033483;28;20048;-72
2022/10/29 05:30:40;;;;;;;494.38;38.22;;;12.30;99.90;;;;;;5066305;28;20119;-71
2022/10/29 05:33:10;;;;;;;527.60;37.70;;;12.20;99.90;;;;;;5065675;28;20044;-71
2022/10/29 05:35:36;;;;;;;529.30;39.38;;;12.20;99.90;;;;;;5036465;28;20115;-71
2022/10/29 05:38:02;;;;;;;469.27;31.75;;;12.20;99.90;;;;;;5038088;28;20052;-71
2022/10/29 05:40:29;;;;;;;452.42;33.22;;;12.20;99.90;;;;;;5070322;28;20488;-71
2022/10/29 05:42:54;;;;;;;371.95;23.58;;;12.30;99.90;;;;;;5067971;28;20056;-71
2022/10/29 05:45:21;;;;;;;347.25;24.38;;;12.20;99.90;;;;;;5050051;28;20053;-71
2022/10/29 05:47:46;;;;;;;374.15;30.52;;;12.20;99.90;;;;;;5050407;28;20079;-71
2022/10/29 05:50:12;;;;;;;424.30;32.10;;;12.20;99.90;;;;;;5039340;28;20120;-71
2022/10/29 05:52:38;;;;;;;210.32;22.08;;;12.20;99.90;;;;;;5064861;28;20440;-71
2022/10/29 05:55:05;;;;;;;343.55;28.08;;;12.20;99.90;;;;;;5069801;28;20132;-71
2022/10/29 05:57:30;;;;;;;384.45;33.22;;;12.10;99.90;;;;;;5016830;28;20055;-72
2022/10/29 05:59:56;;;;;;;290.35;23.77;;;12.20;99.90;;;;;;5069470;28;20041;-71
2022/10/29 06:02:22;;;;;;;345.67;27.10;;;12.10;99.90;;;;;;5069667;28;20139;-71
2022/10/29 06:04:47;;;;;;;354.42;30.23;;;12.10;99.90;;;;;;5066412;28;20084;-71
2022/10/29 06:07:13;;;;;;;241.20;21.85;;;12.10;99.90;;;;;;5034122;28;20052;-71
2022/10/29 06:09:39;;;;;;;249.63;27.63;;;12.10;99.90;;;;;;5031930;28;20120;-71
2022/10/29 06:12:05;;;;;;;289.17;27.73;;;12.10;99.90;;;;;;5060889;28;20059;-71
2022/10/29 06:14:30;;;;;;;289.00;27.48;;;12.10;99.90;;;;;;5040163;28;20128;-71
2022/10/29 06:16:56;;;;;;;250.13;24.30;;;12.10;99.90;;;;;;5014451;28;20483;-71
2022/10/29 06:19:22;;;;;;;238.70;24.60;;;12.10;99.90;;;;;;5049790;28;20483;-70
2022/10/29 06:21:47;;;;;;;302.63;28.70;;;12.10;99.90;;;;;;5065864;28;20062;-71
2022/10/29 06:24:13;;;;;;;319.35;24.60;;;12.10;99.90;;;;;;5069990;28;20036;-71
2022/10/29 06:26:39;;;;;;;322.48;29.80;;;12.10;99.90;;;;;;5054215;28;20041;-71
2022/10/29 06:29:05;;;;;;;271.45;24.10;;;12.00;99.90;;;;;;5055518;28;20053;-71
2022/10/29 06:31:31;;;;;;;347.58;34.70;;;12.10;99.90;;;;;;5076455;28;20106;-71
2022/10/29 06:33:56;;;;;;;304.20;28.02;;;12.10;99.90;;;;;;5058277;28;20060;-71
2022/10/29 06:36:22;;;;;;;246.18;24.17;;;12.00;99.90;;;;;;5044633;28;20060;-72
2022/10/29 06:38:48;;;;;;;160.77;22.30;;;12.10;99.90;;;;;;5057879;28;20496;-71
2022/10/29 06:41:14;;;;;;;188.85;21.17;;;12.00;99.90;;;;;;5059713;28;20056;-71
2022/10/29 06:43:40;;;;;;;256.05;26.10;;;12.00;99.90;;;;;;5055060;28;20094;-71
2022/10/29 06:46:06;;;;;;;175.50;22.52;;;12.10;99.90;;;;;;5055391;28;20049;-72
2022/10/29 06:48:31;;;;;;;312.70;26.95;;;12.10;99.90;;;;;;5046095;28;20424;-71
2022/10/29 06:50:58;;;;;;;331.83;29.27;;;12.10;99.90;;;;;;5058390;28;20044;-71
2022/10/29 06:53:25;;;;;;;137.30;17.17;;;12.10;99.90;;;;;;5057672;28;20120;-71
2022/10/29 06:55:50;;;;;;;277.48;27.60;;;12.10;99.90;;;;;;5057789;28;20049;-71
2022/10/29 06:58:18;;;;;;;306.80;25.67;;;12.00;99.90;;;;;;5043570;28;20063;-71
2022/10/29 07:00:45;;;;;;;285.50;30.48;;;12.10;99.90;;;;;;5054533;28;20056;-71
2022/10/29 07:03:15;;;;;;;220.52;25.20;;;12.20;99.90;;;;;;5057693;28;20040;-71
2022/10/29 07:05:41;;;;;;;349.73;36.53;;;12.20;99.90;;;;;;5058791;28;20045;-71
2022/10/29 07:08:07;;;;;;;301.50;29.90;;;12.30;99.90;;;;;;5033759;28;20116;-71
2022/10/29 07:10:33;;;;;;;269.58;26.42;;;12.20;99.90;;;;;;5011223;28;20128;-71
2022/10/29 07:12:59;;;;;;;274.33;29.30;;;12.20;99.90;;;;;;5026275;28;20120;-71
2022/10/29 07:15:26;;;;;;;277.63;26.33;;;12.20;99.90;;;;;;5028696;28;20049;-71
2022/10/29 07:18:00;;;;;;;324.40;32.08;;;12.20;99.90;;;;;;5014019;28;20118;-70
2022/10/29 07:20:28;;;;;;;279.65;27.15;;;12.30;99.90;;;;;;5027443;28;20104;-71
2022/10/29 07:22:53;;;;;;;272.65;27.83;;;12.30;99.90;;;;;;5025886;28;20080;-71
2022/10/29 07:25:19;;;;;;;286.83;28.45;;;12.20;99.90;;;;;;5029362;28;20579;-71
2022/10/29 07:27:46;;;;;;;356.63;30.98;;;12.30;99.90;;;;;;5011408;28;20368;-71
2022/10/29 07:30:12;;;;;;;268.65;25.75;;;12.30;99.90;;;;;;5025650;28;20043;-71
2022/10/29 07:32:37;;;;;;;328.55;28.92;;;12.30;99.90;;;;;;5024801;28;20116;-72
2022/10/29 07:35:03;;;;;;;329.88;30.98;;;12.50;99.90;;;;;;5028141;28;20041;-71
2022/10/29 07:37:29;;;;;;;364.17;30.15;;;12.40;99.90;;;;;;4997836;28;20053;-71
2022/10/29 07:39:54;;;;;;;328.20;27.48;;;12.40;99.90;;;;;;5029307;28;20049;-71
2022/10/29 07:42:20;;;;;;;318.98;28.27;;;12.40;99.90;;;;;;5032288;28;20110;-71
2022/10/29 07:44:46;;;;;;;341.45;33.17;;;12.50;99.90;;;;;;5031990;28;20064;-71
2022/10/29 07:47:11;;;;;;;330.25;27.92;;;12.60;99.90;;;;;;5019642;28;20041;-71
2022/10/29 07:49:37;;;;;;;257.90;24.17;;;12.60;99.90;;;;;;5034320;28;20575;-71
2022/10/29 07:52:03;;;;;;;278.05;26.90;;;12.60;99.90;;;;;;5026197;28;20050;-71
2022/10/29 07:54:28;;;;;;;194.10;22.48;;;12.70;99.90;;;;;;5033554;28;20065;-71
2022/10/29 07:56:54;;;;;;;314.20;27.13;;;12.70;99.90;;;;;;5016591;28;20056;-71
2022/10/29 07:59:20;;;;;;;202.02;21.00;;;12.70;99.90;;;;;;5021889;28;20045;-71
2022/10/29 08:01:45;;;;;;;138.20;20.30;;;12.80;99.90;;;;;;5022773;28;20057;-71
2022/10/29 08:04:12;;;;;;;335.27;32.72;;;12.80;99.90;;;;;;5022981;28;20034;-71
2022/10/29 08:06:38;;;;;;;304.58;28.70;;;12.80;99.90;;;;;;5010511;28;20049;-71
2022/10/29 08:09:04;;;;;;;226.18;27.52;;;12.80;99.90;;;;;;5019488;28;20519;-71
2022/10/29 08:11:33;;;;;;;204.95;26.10;;;12.90;99.90;;;;;;5023776;28;20042;-71
2022/10/29 08:13:59;;;;;;;296.45;34.38;;;13.00;99.90;;;;;;5019706;28;20045;-71
2022/10/29 08:16:25;;;;;;;291.70;34.47;;;13.00;99.90;;;;;;5012323;28;20042;-71
2022/10/29 08:18:51;;;;;;;301.63;36.47;;;13.00;99.90;;;;;;5002851;28;20033;-71
2022/10/29 08:21:17;;;;;;;167.60;27.38;;;13.00;99.90;;;;;;5024908;28;20049;-71
2022/10/29 08:23:43;;;;;;;122.88;23.75;;;13.10;99.90;;;;;;5039756;28;20042;-71
2022/10/29 08:26:09;;;;;;;239.93;33.35;;;13.10;99.90;;;;;;5022659;28;20115;-72
2022/10/29 08:28:35;;;;;;;178.73;31.48;;;13.10;99.90;;;;;;5019712;28;20037;-71
2022/10/29 08:31:00;;;;;;;175.55;33.20;;;13.00;99.90;;;;;;5025513;28;20053;-71
2022/10/29 08:33:26;;;;;;;156.73;31.60;;;13.10;99.90;;;;;;5024566;28;20041;-71
2022/10/29 08:35:53;;;;;;;160.52;35.75;;;13.30;99.90;;;;;;5025098;28;20037;-71
2022/10/29 08:38:22;;;;;;;187.00;36.33;;;13.20;99.90;;;;;;5013305;28;20056;-71
2022/10/29 08:40:53;;;;;;;161.50;35.75;;;13.30;99.90;;;;;;5024560;28;20049;-71
2022/10/29 08:43:46;;;;;;;;;;;13.30;99.90;;;;;;5029814;28;20793;-71
2022/10/29 08:46:28;;;;;;;161.85;36.72;;;13.30;99.90;;;;;;5038993;28;19924;-72
2022/10/29 08:48:59;;;;;;;148.98;38.90;;;13.30;99.90;;;;;;5024008;28;20068;-72
2022/10/29 08:51:37;;;;;;;157.60;38.60;;;13.40;99.90;;;;;;5038306;28;20049;-71
2022/10/29 08:54:04;;;;;;;146.00;36.72;;;13.30;99.90;;;;;;5025135;28;20044;-71
2022/10/29 08:56:35;;;;;;;122.22;36.95;;;13.50;99.90;;;;;;5024967;28;20056;-71
2022/10/29 08:59:05;;;;;;;151.45;38.08;;;13.40;99.90;;;;;;5039239;28;20048;-71
2022/10/29 09:01:31;;;;;;;141.07;39.55;;;13.50;99.90;;;;;;5055770;28;20095;-71
2022/10/29 09:03:57;;;;;;;127.43;38.05;;;13.50;99.90;;;;;;5039160;28;20072;-71
2022/10/29 09:07:00;;;;;;;152.10;39.13;;;13.60;99.90;;;;;;5027289;28;20047;-71
2022/10/29 09:10:17;;;;;;;142.50;38.70;;;13.60;99.90;;;;;;5052435;28;20151;-72
2022/10/29 09:13:07;;;;;;;117.18;36.67;;;13.70;99.90;;;;;;4993591;28;20069;-71
2022/10/29 09:15:51;;;;;;;128.77;38.45;;;13.60;99.90;;;;;;5053047;28;20048;-71
2022/10/29 09:18:39;;;;;;;111.35;36.50;;;13.70;99.90;;;;;;5018018;28;20049;-72
2022/10/29 09:21:10;;;;;;;127.53;38.67;;;13.80;99.90;;;;;;5055614;28;20040;-71
2022/10/29 09:23:48;;;;;;;114.82;38.00;;;13.70;99.90;;;;;;5051523;28;20040;-72
2022/10/29 09:26:24;;;;;;;95.85;35.67;;;13.80;99.90;;;;;;5038773;28;20048;-72
2022/10/29 09:29:20;;;;;;;106.65;36.10;;;13.80;99.90;;;;;;5050280;28;20143;-72
2022/10/29 09:35:57;;;;;;;97.25;34.50;;;13.90;99.90;;;;;;5037310;28;20523;-72
2022/10/29 09:38:36;;;;;;;102.70;33.35;;;14.00;99.90;;;;;;4987121;28;20053;-72
2022/10/29 09:41:03;;;;;;;95.80;35.35;;;14.00;99.90;;;;;;5036974;28;20061;-72
2022/10/29 09:43:40;;;;;;;103.97;35.83;;;14.00;99.90;;;;;;5022882;28;20042;-72
2022/10/29 09:46:36;;;;;;;106.78;36.42;;;14.00;99.90;;;;;;5022039;28;20053;-73
2022/10/29 09:49:19;;;;;;;90.40;35.47;;;14.10;99.90;;;;;;5003089;28;20576;-72
2022/10/29 09:52:07;;;;;;;87.03;33.53;;;14.00;99.90;;;;;;5022095;28;20053;-72
2022/10/29 09:54:33;;;;;;;96.72;34.60;;;14.10;99.90;;;;;;5007014;28;20057;-72
2022/10/29 09:57:01;;;;;;;87.63;32.78;;;14.10;99.90;;;;;;4990498;28;20587;-72
2022/10/29 09:59:36;;;;;;;89.78;36.03;;;14.10;99.90;;;;;;5026356;28;20045;-72
2022/10/29 10:02:21;;;;;;;93.28;35.50;;;14.20;99.90;;;;;;5005912;28;20171;-71
2022/10/29 10:04:50;;;;;;;100.85;35.75;;;14.20;99.90;;;;;;5003706;28;20089;-72
2022/10/29 10:07:19;;;;;;;98.18;35.55;;;14.30;99.90;;;;;;5007044;28;20412;-71
2022/10/29 10:09:52;;;;;;;90.45;36.83;;;14.30;99.90;;;;;;5033417;28;20086;-72
2022/10/29 10:12:20;;;;;;;81.85;34.60;;;14.40;99.90;;;;;;5040881;28;20045;-72
2022/10/29 10:14:47;;;;;;;87.68;35.78;;;14.50;99.90;;;;;;5043930;28;20064;-71
2022/10/29 10:17:13;;;;;;;82.28;33.13;;;14.60;99.90;;;;;;5029177;28;20053;-72
2022/10/29 10:19:47;;;;;;;76.63;32.92;;;14.50;99.90;;;;;;5045771;28;20059;-72
2022/10/29 10:22:21;;;;;;;79.43;32.72;;;14.60;99.90;;;;;;5049096;28;20511;-71
2022/10/29 10:24:47;;;;;;;61.08;31.23;;;14.70;99.90;;;;;;5047834;28;20056;-71
2022/10/29 10:27:18;;;;;;;73.32;30.38;;;14.70;99.90;;;;;;5031732;28;20053;-72
2022/10/29 10:30:07;;;;;;;;;;;14.80;99.90;;;;;;5047658;28;20107;-72
2022/10/29 10:32:33;;;;;;;56.40;27.83;;;14.90;99.90;;;;;;5039616;28;19924;-72
2022/10/29 10:34:58;;;;;;;56.45;28.90;;;14.80;99.90;;;;;;5063696;28;20056;-71
2022/10/29 10:37:24;;;;;;;53.85;26.77;;;14.80;99.90;;;;;;5027884;28;20096;-72
2022/10/29 10:39:52;;;;;;;62.10;27.70;;;14.90;99.90;;;;;;5058453;28;20381;-72
2022/10/29 10:42:21;;;;;;;49.65;26.95;;;14.90;99.90;;;;;;5030134;28;20110;-72
2022/10/29 10:45:08;;;;;;;61.78;26.77;;;15.00;99.90;;;;;;5046786;28;20040;-72
2022/10/29 10:47:35;;;;;;;47.45;26.20;;;15.10;99.90;;;;;;5010875;28;20045;-72
2022/10/29 10:50:21;;;;;;;50.08;24.83;;;15.10;99.90;;;;;;5047066;28;20084;-72
2022/10/29 10:52:48;;;;;;;49.97;26.27;;;15.10;99.90;;;;;;5046729;28;20399;-72
2022/10/29 10:55:37;;;;;;;44.25;24.15;;;15.30;99.90;;;;;;5049834;28;20057;-72
2022/10/29 10:58:26;;;;;;;41.70;23.45;;;15.30;99.90;;;;;;5030595;28;20055;-72
2022/10/29 11:01:03;;;;;;;47.28;23.75;;;15.40;99.90;;;;;;5046298;28;20087;-72
2022/10/29 11:03:31;;;;;;;39.72;22.83;;;15.50;99.90;;;;;;5046856;28;20044;-72
2022/10/29 11:06:06;;;;;;;46.47;23.50;;;15.60;99.90;;;;;;5050344;28;20590;-72
2022/10/29 11:08:53;;;;;;;44.53;21.00;;;15.60;99.90;;;;;;5038852;28;20048;-72
2022/10/29 11:11:31;;;;;;;45.80;23.25;;;15.60;99.90;;;;;;5046060;28;20060;-72
2022/10/29 11:14:05;;;;;;;41.53;21.65;;;15.70;99.90;;;;;;5034711;28;20059;-72
2022/10/29 11:16:49;;;;;;;43.35;20.98;;;15.70;99.90;;;;;;5018734;28;20044;-72
2022/10/29 11:19:19;;;;;;;35.97;20.50;;;15.70;99.90;;;;;;5049592;28;20041;-73
2022/10/29 11:22:05;;;;;;;35.90;20.95;;;15.80;99.90;;;;;;5053615;28;20055;-72
2022/10/29 11:24:42;;;;;;;32.35;18.42;;;15.90;99.90;;;;;;5044659;28;20794;-72
2022/10/29 11:27:31;;;;;;;32.75;17.30;;;15.90;99.90;;;;;;5029255;28;20156;-72
2022/10/29 11:30:11;;;;;;;34.33;17.70;;;16.00;99.90;;;;;;5048702;28;20049;-72
2022/10/29 11:32:48;;;;;;;35.22;17.83;;;16.00;99.90;;;;;;5048743;28;20102;-73
2022/10/29 11:35:21;;;;;;;25.58;16.25;;;16.10;99.90;;;;;;5052604;28;20033;-72
2022/10/29 11:38:05;;;;;;;30.17;15.85;;;16.10;99.90;;;;;;5034802;28;20052;-72
2022/10/29 11:40:43;;;;;;;31.90;15.82;;;16.20;99.90;;;;;;5069407;28;20045;-72
2022/10/29 11:43:14;;;;;;;32.63;16.25;;;16.30;99.90;;;;;;5050057;28;20046;-72
2022/10/29 11:46:13;;;;;;;30.63;16.55;;;16.40;99.90;;;;;;5042981;28;20136;-73
2022/10/29 11:48:54;;;;;;;31.98;16.08;;;16.40;99.90;;;;;;5037987;28;20655;-73
2022/10/29 11:51:39;;;;;;;31.83;15.80;;;16.70;99.90;;;;;;5045215;28;20060;-72
2022/10/29 11:54:15;;;;;;;26.60;15.63;;;16.80;99.90;;;;;;5044770;28;20040;-73
2022/10/29 11:56:52;;;;;;;26.45;13.98;;;16.90;99.90;;;;;;5033198;28;20420;-73
2022/10/29 11:59:33;;;;;;;28.20;13.98;;;16.90;99.90;;;;;;5041261;28;20037;-72
2022/10/29 12:02:14;;;;;;;23.83;13.13;;;16.90;99.90;;;;;;5029508;28;20575;-72
2022/10/29 12:05:05;;;;;;;26.98;13.50;;;16.90;99.90;;;;;;5047361;28;20128;-72
2022/10/29 12:07:40;;;;;;;27.83;13.10;;;16.90;99.90;;;;;;5020824;28;20124;-73
2022/10/29 12:10:38;;;;;;;32.95;14.07;;;16.90;99.90;;;;;;5045832;28;20049;-72
2022/10/29 12:13:15;;;;;;;29.08;13.77;;;16.90;99.90;;;;;;5045662;28;20059;-72
2022/10/29 12:15:46;;;;;;;29.85;13.73;;;16.90;99.90;;;;;;5046763;28;20580;-73
2022/10/29 12:18:24;;;;;;;;;;;17.00;99.90;;;;;;5031602;28;20438;-73
2022/10/29 12:21:23;;;;;;;30.05;13.68;;;17.10;99.90;;;;;;5046411;28;19925;-72
2022/10/29 12:24:19;;;;;;;24.25;12.85;;;17.10;99.90;;;;;;5040860;28;20051;-72
2022/10/29 12:26:59;;;;;;;29.65;13.18;;;17.10;99.90;;;;;;5032688;28;20049;-73
2022/10/29 12:29:28;;;;;;;29.83;12.82;;;17.20;99.90;;;;;;5045194;28;20136;-73
2022/10/29 12:32:06;;;;;;;27.40;12.90;;;17.20;99.90;;;;;;5046111;28;20052;-73
2022/10/29 12:34:51;;;;;;;28.50;13.65;;;17.20;99.90;;;;;;5047837;28;20041;-73
2022/10/29 12:37:46;;;;;;;28.73;13.73;;;17.20;99.90;;;;;;5029014;28;20048;-73
2022/10/29 12:40:22;;;;;;;29.55;13.90;;;17.20;99.90;;;;;;5047298;28;20052;-73
2022/10/29 12:42:48;;;;;;;29.02;14.63;;;17.40;99.90;;;;;;5030601;28;20123;-73
2022/10/29 12:45:49;;;;;;;29.77;14.18;;;17.50;99.90;;;;;;5045895;28;20391;-73